sensor_id;sensor_type;location;lat;lon;timestamp;P1;durP1;ratioP1;P2;durP2;ratioP2
22650;SDS011;11492;42.646;23.400;2022-11-11T00:00:48;46.60;;;26.88;;
22650;SDS011;11492;42.646;23.400;2022-11-11T00:03:14;56.75;;;28.40;;
22650;SDS011;11492;42.646;23.400;2022-11-11T00:05:40;50.72;;;27.67;;
22650;SDS011;11492;42.646;23.400;2022-11-11T00:08:05;59.60;;;28.05;;
22650;SDS011;11492;42.646;23.400;2022-11-11T00:10:31;59.85;;;29.23;;
22650;SDS011;11492;42.646;23.400;2022-11-11T00:12:57;48.83;;;27.10;;
22650;SDS011;11492;42.646;23.400;2022-11-11T00:15:24;52.70;;;27.02;;
22650;SDS011;11492;42.646;23.400;2022-11-11T00:17:49;47.45;;;28.50;;
22650;SDS011;11492;42.646;23.400;2022-11-11T00:20:35;46.15;;;25.83;;
22650;SDS011;11492;42.646;23.400;2022-11-11T00:23:24;47.20;;;27.13;;
22650;SDS011;11492;42.646;23.400;2022-11-11T00:26:10;53.08;;;26.45;;
22650;SDS011;11492;42.646;23.400;2022-11-11T00:28:37;44.80;;;25.73;;
22650;SDS011;11492;42.646;23.400;2022-11-11T00:31:07;50.13;;;26.42;;
22650;SDS011;11492;42.646;23.400;2022-11-11T00:33:34;46.05;;;25.90;;
22650;SDS011;11492;42.646;23.400;2022-11-11T00:36:00;55.80;;;26.60;;
22650;SDS011;11492;42.646;23.400;2022-11-11T00:38:26;49.65;;;26.15;;
22650;SDS011;11492;42.646;23.400;2022-11-11T00:41:21;47.15;;;26.10;;
22650;SDS011;11492;42.646;23.400;2022-11-11T00:43:47;49.90;;;28.58;;
22650;SDS011;11492;42.646;23.400;2022-11-11T00:46:14;48.97;;;27.95;;
22650;SDS011;11492;42.646;23.400;2022-11-11T00:48:59;45.75;;;26.85;;
22650;SDS011;11492;42.646;23.400;2022-11-11T00:51:43;55.13;;;27.35;;
22650;SDS011;11492;42.646;23.400;2022-11-11T00:54:09;52.60;;;28.17;;
22650;SDS011;11492;42.646;23.400;2022-11-11T00:56:35;58.08;;;28.50;;
22650;SDS011;11492;42.646;23.400;2022-11-11T00:59:01;47.53;;;26.48;;
22650;SDS011;11492;42.646;23.400;2022-11-11T01:01:28;46.65;;;25.45;;
22650;SDS011;11492;42.646;23.400;2022-11-11T01:03:53;50.05;;;26.92;;
22650;SDS011;11492;42.646;23.400;2022-11-11T01:06:19;45.28;;;26.95;;
22650;SDS011;11492;42.646;23.400;2022-11-11T01:08:44;53.70;;;27.67;;
22650;SDS011;11492;42.646;23.400;2022-11-11T01:11:14;47.42;;;26.77;;
22650;SDS011;11492;42.646;23.400;2022-11-11T01:13:41;47.63;;;27.13;;
22650;SDS011;11492;42.646;23.400;2022-11-11T01:16:10;46.83;;;26.83;;
22650;SDS011;11492;42.646;23.400;2022-11-11T01:18:37;48.30;;;27.92;;
22650;SDS011;11492;42.646;23.400;2022-11-11T01:23:31;50.58;;;26.63;;
22650;SDS011;11492;42.646;23.400;2022-11-11T01:26:05;55.03;;;27.88;;
22650;SDS011;11492;42.646;23.400;2022-11-11T01:28:34;48.25;;;27.83;;
22650;SDS011;11492;42.646;23.400;2022-11-11T01:31:00;52.72;;;28.50;;
22650;SDS011;11492;42.646;23.400;2022-11-11T01:33:27;53.72;;;30.10;;
22650;SDS011;11492;42.646;23.400;2022-11-11T01:35:53;55.33;;;29.13;;
22650;SDS011;11492;42.646;23.400;2022-11-11T01:38:18;55.00;;;28.75;;
22650;SDS011;11492;42.646;23.400;2022-11-11T01:40:44;54.38;;;27.92;;
22650;SDS011;11492;42.646;23.400;2022-11-11T01:43:19;52.90;;;29.55;;
22650;SDS011;11492;42.646;23.400;2022-11-11T01:45:55;51.78;;;28.98;;
22650;SDS011;11492;42.646;23.400;2022-11-11T02:00:05;56.55;;;30.40;;
22650;SDS011;11492;42.646;23.400;2022-11-11T02:02:38;59.95;;;29.55;;
22650;SDS011;11492;42.646;23.400;2022-11-11T02:05:09;56.10;;;30.43;;
22650;SDS011;11492;42.646;23.400;2022-11-11T02:07:55;57.28;;;31.27;;
22650;SDS011;11492;42.646;23.400;2022-11-11T02:10:23;63.08;;;30.80;;
22650;SDS011;11492;42.646;23.400;2022-11-11T02:12:51;57.83;;;31.25;;
22650;SDS011;11492;42.646;23.400;2022-11-11T02:15:35;62.45;;;33.05;;
22650;SDS011;11492;42.646;23.400;2022-11-11T02:18:02;71.30;;;32.75;;
22650;SDS011;11492;42.646;23.400;2022-11-11T02:20:29;65.95;;;33.75;;
22650;SDS011;11492;42.646;23.400;2022-11-11T02:26:07;73.55;;;35.03;;
22650;SDS011;11492;42.646;23.400;2022-11-11T02:28:37;67.38;;;35.80;;
22650;SDS011;11492;42.646;23.400;2022-11-11T02:31:03;66.63;;;36.92;;
22650;SDS011;11492;42.646;23.400;2022-11-11T02:33:29;78.32;;;38.50;;
22650;SDS011;11492;42.646;23.400;2022-11-11T02:35:55;76.65;;;39.25;;
22650;SDS011;11492;42.646;23.400;2022-11-11T02:38:24;86.63;;;41.75;;
22650;SDS011;11492;42.646;23.400;2022-11-11T02:40:50;93.20;;;42.70;;
22650;SDS011;11492;42.646;23.400;2022-11-11T02:43:34;87.97;;;43.90;;
22650;SDS011;11492;42.646;23.400;2022-11-11T02:46:01;89.18;;;44.25;;
22650;SDS011;11492;42.646;23.400;2022-11-11T02:48:28;83.10;;;43.75;;
22650;SDS011;11492;42.646;23.400;2022-11-11T02:50:54;88.78;;;46.75;;
22650;SDS011;11492;42.646;23.400;2022-11-11T02:53:20;99.80;;;49.50;;
22650;SDS011;11492;42.646;23.400;2022-11-11T02:55:46;100.82;;;49.47;;
22650;SDS011;11492;42.646;23.400;2022-11-11T02:58:12;97.43;;;50.08;;
22650;SDS011;11492;42.646;23.400;2022-11-11T03:00:38;99.85;;;49.38;;
22650;SDS011;11492;42.646;23.400;2022-11-11T03:03:04;95.57;;;48.22;;
22650;SDS011;11492;42.646;23.400;2022-11-11T03:05:29;94.95;;;46.92;;
22650;SDS011;11492;42.646;23.400;2022-11-11T03:07:55;85.55;;;44.95;;
22650;SDS011;11492;42.646;23.400;2022-11-11T03:10:20;83.70;;;43.20;;
22650;SDS011;11492;42.646;23.400;2022-11-11T03:12:46;91.93;;;44.20;;
22650;SDS011;11492;42.646;23.400;2022-11-11T03:15:11;85.50;;;42.83;;
22650;SDS011;11492;42.646;23.400;2022-11-11T03:17:37;80.53;;;43.25;;
22650;SDS011;11492;42.646;23.400;2022-11-11T03:23:00;98.57;;;46.80;;
22650;SDS011;11492;42.646;23.400;2022-11-11T03:25:29;95.25;;;47.47;;
22650;SDS011;11492;42.646;23.400;2022-11-11T03:28:08;89.93;;;42.60;;
22650;SDS011;11492;42.646;23.400;2022-11-11T03:30:34;87.00;;;40.47;;
22650;SDS011;11492;42.646;23.400;2022-11-11T03:33:00;74.82;;;37.88;;
22650;SDS011;11492;42.646;23.400;2022-11-11T03:35:26;69.05;;;38.70;;
22650;SDS011;11492;42.646;23.400;2022-11-11T03:37:52;80.47;;;38.22;;
22650;SDS011;11492;42.646;23.400;2022-11-11T03:40:36;70.20;;;39.15;;
22650;SDS011;11492;42.646;23.400;2022-11-11T03:43:02;77.90;;;38.95;;
22650;SDS011;11492;42.646;23.400;2022-11-11T03:45:27;82.88;;;39.00;;
22650;SDS011;11492;42.646;23.400;2022-11-11T03:47:53;75.85;;;39.03;;
22650;SDS011;11492;42.646;23.400;2022-11-11T03:50:21;65.80;;;37.80;;
22650;SDS011;11492;42.646;23.400;2022-11-11T03:52:47;72.63;;;39.15;;
22650;SDS011;11492;42.646;23.400;2022-11-11T03:55:12;71.20;;;37.50;;
22650;SDS011;11492;42.646;23.400;2022-11-11T03:57:42;108.20;;;56.47;;
22650;SDS011;11492;42.646;23.400;2022-11-11T04:00:13;72.50;;;39.00;;
22650;SDS011;11492;42.646;23.400;2022-11-11T04:02:44;75.03;;;38.35;;
22650;SDS011;11492;42.646;23.400;2022-11-11T04:05:28;75.10;;;36.25;;
22650;SDS011;11492;42.646;23.400;2022-11-11T04:08:13;69.97;;;34.63;;
22650;SDS011;11492;42.646;23.400;2022-11-11T04:10:59;73.57;;;36.15;;
22650;SDS011;11492;42.646;23.400;2022-11-11T04:13:30;71.25;;;35.55;;
22650;SDS011;11492;42.646;23.400;2022-11-11T04:16:15;74.95;;;34.85;;
22650;SDS011;11492;42.646;23.400;2022-11-11T04:18:40;74.75;;;35.95;;
22650;SDS011;11492;42.646;23.400;2022-11-11T04:21:24;69.05;;;37.85;;
22650;SDS011;11492;42.646;23.400;2022-11-11T04:24:12;67.50;;;34.60;;
22650;SDS011;11492;42.646;23.400;2022-11-11T04:27:00;78.95;;;37.90;;
22650;SDS011;11492;42.646;23.400;2022-11-11T04:29:27;80.00;;;37.25;;
22650;SDS011;11492;42.646;23.400;2022-11-11T04:32:00;74.38;;;37.42;;
22650;SDS011;11492;42.646;23.400;2022-11-11T04:34:56;74.15;;;38.58;;
22650;SDS011;11492;42.646;23.400;2022-11-11T04:37:23;75.82;;;36.17;;
22650;SDS011;11492;42.646;23.400;2022-11-11T04:39:50;64.30;;;35.83;;
22650;SDS011;11492;42.646;23.400;2022-11-11T04:42:34;69.47;;;35.05;;
22650;SDS011;11492;42.646;23.400;2022-11-11T04:45:00;68.30;;;36.22;;
22650;SDS011;11492;42.646;23.400;2022-11-11T04:50:32;82.40;;;39.33;;
22650;SDS011;11492;42.646;23.400;2022-11-11T04:53:00;76.00;;;39.70;;
22650;SDS011;11492;42.646;23.400;2022-11-11T04:55:26;81.20;;;42.50;;
22650;SDS011;11492;42.646;23.400;2022-11-11T04:58:10;101.15;;;43.13;;
22650;SDS011;11492;42.646;23.400;2022-11-11T05:00:37;83.43;;;41.55;;
22650;SDS011;11492;42.646;23.400;2022-11-11T05:03:02;78.15;;;41.92;;
22650;SDS011;11492;42.646;23.400;2022-11-11T05:05:41;73.85;;;40.80;;
22650;SDS011;11492;42.646;23.400;2022-11-11T05:08:27;78.70;;;40.50;;
22650;SDS011;11492;42.646;23.400;2022-11-11T05:11:11;84.00;;;43.67;;
22650;SDS011;11492;42.646;23.400;2022-11-11T05:13:36;88.07;;;43.03;;
22650;SDS011;11492;42.646;23.400;2022-11-11T05:16:21;84.25;;;42.65;;
22650;SDS011;11492;42.646;23.400;2022-11-11T05:19:10;80.70;;;43.08;;
22650;SDS011;11492;42.646;23.400;2022-11-11T05:21:56;80.65;;;44.13;;
22650;SDS011;11492;42.646;23.400;2022-11-11T05:24:32;86.65;;;44.25;;
22650;SDS011;11492;42.646;23.400;2022-11-11T05:27:15;78.85;;;44.65;;
22650;SDS011;11492;42.646;23.400;2022-11-11T05:29:42;86.38;;;46.13;;
22650;SDS011;11492;42.646;23.400;2022-11-11T05:32:07;88.97;;;46.13;;
22650;SDS011;11492;42.646;23.400;2022-11-11T05:34:33;84.05;;;45.80;;
22650;SDS011;11492;42.646;23.400;2022-11-11T05:36:59;92.80;;;46.78;;
22650;SDS011;11492;42.646;23.400;2022-11-11T05:39:24;84.28;;;45.95;;
22650;SDS011;11492;42.646;23.400;2022-11-11T05:41:49;91.20;;;44.38;;
22650;SDS011;11492;42.646;23.400;2022-11-11T05:44:15;76.30;;;44.72;;
22650;SDS011;11492;42.646;23.400;2022-11-11T05:46:40;84.78;;;44.42;;
22650;SDS011;11492;42.646;23.400;2022-11-11T05:49:06;79.13;;;44.78;;
22650;SDS011;11492;42.646;23.400;2022-11-11T05:51:41;88.25;;;46.17;;
22650;SDS011;11492;42.646;23.400;2022-11-11T05:54:10;89.53;;;44.33;;
22650;SDS011;11492;42.646;23.400;2022-11-11T05:56:36;84.38;;;43.15;;
22650;SDS011;11492;42.646;23.400;2022-11-11T05:59:02;85.00;;;45.30;;
22650;SDS011;11492;42.646;23.400;2022-11-11T06:01:29;91.20;;;45.55;;
22650;SDS011;11492;42.646;23.400;2022-11-11T06:03:59;84.13;;;46.00;;
22650;SDS011;11492;42.646;23.400;2022-11-11T06:06:24;84.93;;;44.88;;
22650;SDS011;11492;42.646;23.400;2022-11-11T06:08:52;84.35;;;45.83;;
22650;SDS011;11492;42.646;23.400;2022-11-11T06:11:18;84.50;;;44.83;;
22650;SDS011;11492;42.646;23.400;2022-11-11T06:13:45;83.50;;;45.22;;
22650;SDS011;11492;42.646;23.400;2022-11-11T06:16:12;90.82;;;46.75;;
22650;SDS011;11492;42.646;23.400;2022-11-11T06:18:37;86.07;;;44.67;;
22650;SDS011;11492;42.646;23.400;2022-11-11T06:21:02;87.68;;;46.83;;
22650;SDS011;11492;42.646;23.400;2022-11-11T06:23:29;86.03;;;45.58;;
22650;SDS011;11492;42.646;23.400;2022-11-11T06:25:54;90.13;;;47.42;;
22650;SDS011;11492;42.646;23.400;2022-11-11T06:28:56;79.88;;;43.67;;
22650;SDS011;11492;42.646;23.400;2022-11-11T06:31:23;88.18;;;44.30;;
22650;SDS011;11492;42.646;23.400;2022-11-11T06:33:49;91.53;;;46.35;;
22650;SDS011;11492;42.646;23.400;2022-11-11T06:36:16;82.38;;;45.33;;
22650;SDS011;11492;42.646;23.400;2022-11-11T06:38:43;82.68;;;43.85;;
22650;SDS011;11492;42.646;23.400;2022-11-11T06:41:09;76.63;;;42.75;;
22650;SDS011;11492;42.646;23.400;2022-11-11T06:43:38;83.72;;;42.50;;
22650;SDS011;11492;42.646;23.400;2022-11-11T06:46:05;76.88;;;42.30;;
22650;SDS011;11492;42.646;23.400;2022-11-11T06:48:30;80.75;;;42.08;;
22650;SDS011;11492;42.646;23.400;2022-11-11T06:51:05;82.30;;;43.20;;
22650;SDS011;11492;42.646;23.400;2022-11-11T06:53:30;96.93;;;46.22;;
22650;SDS011;11492;42.646;23.400;2022-11-11T06:55:56;87.38;;;43.78;;
22650;SDS011;11492;42.646;23.400;2022-11-11T06:58:22;77.47;;;39.65;;
22650;SDS011;11492;42.646;23.400;2022-11-11T07:00:48;73.38;;;39.38;;
22650;SDS011;11492;42.646;23.400;2022-11-11T07:03:15;65.88;;;35.08;;
22650;SDS011;11492;42.646;23.400;2022-11-11T07:05:43;62.05;;;32.13;;
22650;SDS011;11492;42.646;23.400;2022-11-11T07:08:10;58.63;;;31.95;;
22650;SDS011;11492;42.646;23.400;2022-11-11T07:10:37;54.53;;;30.88;;
22650;SDS011;11492;42.646;23.400;2022-11-11T07:13:06;58.20;;;29.67;;
22650;SDS011;11492;42.646;23.400;2022-11-11T07:15:32;55.00;;;30.45;;
22650;SDS011;11492;42.646;23.400;2022-11-11T07:17:58;51.78;;;30.27;;
22650;SDS011;11492;42.646;23.400;2022-11-11T07:20:24;49.20;;;29.77;;
22650;SDS011;11492;42.646;23.400;2022-11-11T07:22:50;44.08;;;26.30;;
22650;SDS011;11492;42.646;23.400;2022-11-11T07:25:15;50.03;;;25.90;;
22650;SDS011;11492;42.646;23.400;2022-11-11T07:27:41;40.58;;;24.10;;
22650;SDS011;11492;42.646;23.400;2022-11-11T07:30:07;42.50;;;24.05;;
22650;SDS011;11492;42.646;23.400;2022-11-11T07:32:34;42.35;;;24.27;;
22650;SDS011;11492;42.646;23.400;2022-11-11T07:35:00;43.65;;;24.02;;
22650;SDS011;11492;42.646;23.400;2022-11-11T07:37:26;41.53;;;22.92;;
22650;SDS011;11492;42.646;23.400;2022-11-11T07:39:51;39.63;;;23.60;;
22650;SDS011;11492;42.646;23.400;2022-11-11T07:42:18;40.47;;;22.92;;
22650;SDS011;11492;42.646;23.400;2022-11-11T07:44:44;44.85;;;23.27;;
22650;SDS011;11492;42.646;23.400;2022-11-11T07:47:10;39.97;;;22.25;;
22650;SDS011;11492;42.646;23.400;2022-11-11T07:49:35;42.55;;;22.92;;
22650;SDS011;11492;42.646;23.400;2022-11-11T07:52:01;39.92;;;22.80;;
22650;SDS011;11492;42.646;23.400;2022-11-11T07:54:26;37.65;;;22.40;;
22650;SDS011;11492;42.646;23.400;2022-11-11T07:56:52;40.90;;;23.10;;
22650;SDS011;11492;42.646;23.400;2022-11-11T07:59:17;40.30;;;23.73;;
22650;SDS011;11492;42.646;23.400;2022-11-11T08:01:44;42.33;;;22.98;;
22650;SDS011;11492;42.646;23.400;2022-11-11T08:04:09;45.97;;;23.60;;
22650;SDS011;11492;42.646;23.400;2022-11-11T08:06:35;43.72;;;23.08;;
22650;SDS011;11492;42.646;23.400;2022-11-11T08:09:00;41.58;;;22.98;;
22650;SDS011;11492;42.646;23.400;2022-11-11T08:11:26;43.67;;;22.70;;
22650;SDS011;11492;42.646;23.400;2022-11-11T08:16:35;38.50;;;20.83;;
22650;SDS011;11492;42.646;23.400;2022-11-11T08:19:00;40.25;;;21.60;;
22650;SDS011;11492;42.646;23.400;2022-11-11T08:21:26;37.28;;;19.75;;
22650;SDS011;11492;42.646;23.400;2022-11-11T08:23:52;36.50;;;20.42;;
22650;SDS011;11492;42.646;23.400;2022-11-11T08:26:18;37.30;;;19.73;;
22650;SDS011;11492;42.646;23.400;2022-11-11T08:28:45;35.72;;;18.65;;
22650;SDS011;11492;42.646;23.400;2022-11-11T08:31:11;35.10;;;18.60;;
22650;SDS011;11492;42.646;23.400;2022-11-11T08:33:36;32.55;;;18.77;;
22650;SDS011;11492;42.646;23.400;2022-11-11T08:36:02;35.60;;;19.25;;
22650;SDS011;11492;42.646;23.400;2022-11-11T08:38:29;38.13;;;20.15;;
22650;SDS011;11492;42.646;23.400;2022-11-11T08:40:58;38.25;;;20.15;;
22650;SDS011;11492;42.646;23.400;2022-11-11T08:43:25;37.78;;;20.65;;
22650;SDS011;11492;42.646;23.400;2022-11-11T08:45:53;36.92;;;20.42;;
22650;SDS011;11492;42.646;23.400;2022-11-11T08:48:19;34.60;;;19.90;;
22650;SDS011;11492;42.646;23.400;2022-11-11T08:50:44;34.10;;;19.60;;
22650;SDS011;11492;42.646;23.400;2022-11-11T08:53:10;37.20;;;18.98;;
22650;SDS011;11492;42.646;23.400;2022-11-11T08:55:36;32.85;;;17.90;;
22650;SDS011;11492;42.646;23.400;2022-11-11T08:58:04;33.13;;;17.50;;
22650;SDS011;11492;42.646;23.400;2022-11-11T09:00:31;30.95;;;17.77;;
22650;SDS011;11492;42.646;23.400;2022-11-11T09:03:01;33.42;;;18.15;;
22650;SDS011;11492;42.646;23.400;2022-11-11T09:05:28;32.20;;;17.85;;
22650;SDS011;11492;42.646;23.400;2022-11-11T09:07:54;27.77;;;16.20;;
22650;SDS011;11492;42.646;23.400;2022-11-11T09:10:20;32.42;;;16.92;;
22650;SDS011;11492;42.646;23.400;2022-11-11T09:12:45;25.95;;;16.33;;
22650;SDS011;11492;42.646;23.400;2022-11-11T09:15:11;25.15;;;15.05;;
22650;SDS011;11492;42.646;23.400;2022-11-11T09:17:36;30.02;;;15.55;;
22650;SDS011;11492;42.646;23.400;2022-11-11T09:20:02;28.88;;;15.88;;
22650;SDS011;11492;42.646;23.400;2022-11-11T09:22:28;29.15;;;16.23;;
22650;SDS011;11492;42.646;23.400;2022-11-11T09:24:53;31.70;;;16.38;;
22650;SDS011;11492;42.646;23.400;2022-11-11T09:27:20;29.08;;;14.98;;
22650;SDS011;11492;42.646;23.400;2022-11-11T09:29:45;25.67;;;14.68;;
22650;SDS011;11492;42.646;23.400;2022-11-11T09:32:10;27.48;;;14.93;;
22650;SDS011;11492;42.646;23.400;2022-11-11T09:34:36;22.92;;;13.88;;
22650;SDS011;11492;42.646;23.400;2022-11-11T09:37:01;26.92;;;15.38;;
22650;SDS011;11492;42.646;23.400;2022-11-11T09:39:27;36.05;;;15.15;;
22650;SDS011;11492;42.646;23.400;2022-11-11T09:47:12;27.55;;;14.70;;
22650;SDS011;11492;42.646;23.400;2022-11-11T09:54:56;21.15;;;12.85;;
22650;SDS011;11492;42.646;23.400;2022-11-11T09:57:34;22.30;;;13.30;;
22650;SDS011;11492;42.646;23.400;2022-11-11T10:00:04;27.75;;;12.43;;
22650;SDS011;11492;42.646;23.400;2022-11-11T10:02:54;32.78;;;12.95;;
22650;SDS011;11492;42.646;23.400;2022-11-11T10:05:26;21.20;;;11.45;;
22650;SDS011;11492;42.646;23.400;2022-11-11T10:08:06;19.07;;;11.30;;
22650;SDS011;11492;42.646;23.400;2022-11-11T10:10:41;20.15;;;12.07;;
22650;SDS011;11492;42.646;23.400;2022-11-11T10:13:15;25.48;;;11.85;;
22650;SDS011;11492;42.646;23.400;2022-11-11T10:15:48;22.38;;;11.10;;
22650;SDS011;11492;42.646;23.400;2022-11-11T10:21:31;20.63;;;11.55;;
22650;SDS011;11492;42.646;23.400;2022-11-11T10:24:09;17.73;;;10.55;;
22650;SDS011;11492;42.646;23.400;2022-11-11T10:26:40;16.52;;;10.40;;
22650;SDS011;11492;42.646;23.400;2022-11-11T10:29:10;16.27;;;10.48;;
22650;SDS011;11492;42.646;23.400;2022-11-11T10:31:42;18.33;;;10.48;;
22650;SDS011;11492;42.646;23.400;2022-11-11T10:34:11;15.18;;;9.88;;
22650;SDS011;11492;42.646;23.400;2022-11-11T10:36:44;19.75;;;10.20;;
22650;SDS011;11492;42.646;23.400;2022-11-11T10:39:19;15.25;;;9.38;;
22650;SDS011;11492;42.646;23.400;2022-11-11T10:42:08;15.13;;;9.45;;
22650;SDS011;11492;42.646;23.400;2022-11-11T10:44:42;14.43;;;9.65;;
22650;SDS011;11492;42.646;23.400;2022-11-11T10:47:10;13.55;;;9.43;;
22650;SDS011;11492;42.646;23.400;2022-11-11T10:49:49;13.98;;;9.07;;
22650;SDS011;11492;42.646;23.400;2022-11-11T10:55:08;14.45;;;9.10;;
22650;SDS011;11492;42.646;23.400;2022-11-11T11:00:31;13.75;;;10.43;;
22650;SDS011;11492;42.646;23.400;2022-11-11T11:06:05;16.00;;;9.30;;
22650;SDS011;11492;42.646;23.400;2022-11-11T11:08:53;16.20;;;9.57;;
22650;SDS011;11492;42.646;23.400;2022-11-11T11:11:37;12.82;;;8.82;;
22650;SDS011;11492;42.646;23.400;2022-11-11T11:14:19;14.20;;;9.02;;
22650;SDS011;11492;42.646;23.400;2022-11-11T11:16:49;13.82;;;8.82;;
22650;SDS011;11492;42.646;23.400;2022-11-11T11:19:17;14.40;;;9.23;;
22650;SDS011;11492;42.646;23.400;2022-11-11T11:21:56;15.65;;;10.05;;
22650;SDS011;11492;42.646;23.400;2022-11-11T11:26:50;20.45;;;9.50;;
22650;SDS011;11492;42.646;23.400;2022-11-11T11:29:27;14.23;;;8.98;;
22650;SDS011;11492;42.646;23.400;2022-11-11T11:35:03;13.43;;;8.32;;
22650;SDS011;11492;42.646;23.400;2022-11-11T11:37:28;12.98;;;8.45;;
22650;SDS011;11492;42.646;23.400;2022-11-11T11:40:00;12.60;;;8.82;;
22650;SDS011;11492;42.646;23.400;2022-11-11T11:42:31;15.75;;;8.57;;
22650;SDS011;11492;42.646;23.400;2022-11-11T11:50:46;20.85;;;11.07;;
22650;SDS011;11492;42.646;23.400;2022-11-11T12:01:17;18.75;;;8.30;;
22650;SDS011;11492;42.646;23.400;2022-11-11T12:06:35;14.57;;;7.90;;
22650;SDS011;11492;42.646;23.400;2022-11-11T12:12:16;12.05;;;7.47;;
22650;SDS011;11492;42.646;23.400;2022-11-11T12:20:03;15.18;;;7.38;;
22650;SDS011;11492;42.646;23.400;2022-11-11T12:25:22;12.07;;;7.22;;
22650;SDS011;11492;42.646;23.400;2022-11-11T12:30:23;11.77;;;7.68;;
22650;SDS011;11492;42.646;23.400;2022-11-11T12:44:08;13.60;;;7.28;;
22650;SDS011;11492;42.646;23.400;2022-11-11T12:46:43;15.55;;;7.70;;
22650;SDS011;11492;42.646;23.400;2022-11-11T12:52:05;14.20;;;7.75;;
22650;SDS011;11492;42.646;23.400;2022-11-11T13:02:57;11.30;;;7.00;;
22650;SDS011;11492;42.646;23.400;2022-11-11T13:16:54;16.55;;;7.82;;
22650;SDS011;11492;42.646;23.400;2022-11-11T13:19:32;10.63;;;6.93;;
22650;SDS011;11492;42.646;23.400;2022-11-11T13:22:24;14.05;;;7.90;;
22650;SDS011;11492;42.646;23.400;2022-11-11T13:24:49;18.92;;;7.72;;
22650;SDS011;11492;42.646;23.400;2022-11-11T13:32:49;13.32;;;7.32;;
22650;SDS011;11492;42.646;23.400;2022-11-11T13:35:21;16.73;;;7.72;;
22650;SDS011;11492;42.646;23.400;2022-11-11T13:37:52;13.20;;;7.95;;
22650;SDS011;11492;42.646;23.400;2022-11-11T13:40:40;12.98;;;7.30;;
22650;SDS011;11492;42.646;23.400;2022-11-11T13:43:17;12.75;;;7.60;;
22650;SDS011;11492;42.646;23.400;2022-11-11T13:45:50;15.77;;;7.60;;
22650;SDS011;11492;42.646;23.400;2022-11-11T13:48:19;16.05;;;8.15;;
22650;SDS011;11492;42.646;23.400;2022-11-11T13:50:51;12.82;;;7.32;;
22650;SDS011;11492;42.646;23.400;2022-11-11T13:53:29;15.40;;;8.25;;
22650;SDS011;11492;42.646;23.400;2022-11-11T13:55:59;15.20;;;7.97;;
22650;SDS011;11492;42.646;23.400;2022-11-11T13:58:31;14.13;;;7.88;;
22650;SDS011;11492;42.646;23.400;2022-11-11T14:01:04;14.90;;;8.10;;
22650;SDS011;11492;42.646;23.400;2022-11-11T14:03:33;15.80;;;7.88;;
22650;SDS011;11492;42.646;23.400;2022-11-11T14:13:54;17.75;;;8.25;;
22650;SDS011;11492;42.646;23.400;2022-11-11T14:24:47;13.82;;;8.75;;
22650;SDS011;11492;42.646;23.400;2022-11-11T14:29:36;18.00;;;10.02;;
22650;SDS011;11492;42.646;23.400;2022-11-11T14:35:28;24.75;;;11.25;;
22650;SDS011;11492;42.646;23.400;2022-11-11T14:44:57;21.13;;;11.90;;
22650;SDS011;11492;42.646;23.400;2022-11-11T14:55:13;20.40;;;10.20;;
22650;SDS011;11492;42.646;23.400;2022-11-11T14:57:40;19.08;;;9.55;;
22650;SDS011;11492;42.646;23.400;2022-11-11T15:00:27;16.92;;;9.43;;
22650;SDS011;11492;42.646;23.400;2022-11-11T15:05:52;17.52;;;10.85;;
22650;SDS011;11492;42.646;23.400;2022-11-11T15:11:12;15.65;;;9.73;;
22650;SDS011;11492;42.646;23.400;2022-11-11T15:13:53;17.83;;;9.50;;
22650;SDS011;11492;42.646;23.400;2022-11-11T15:22:44;26.70;;;11.50;;
22650;SDS011;11492;42.646;23.400;2022-11-11T15:28:22;20.40;;;11.27;;
22650;SDS011;11492;42.646;23.400;2022-11-11T15:31:23;26.92;;;10.90;;
22650;SDS011;11492;42.646;23.400;2022-11-11T15:34:02;22.08;;;11.00;;
22650;SDS011;11492;42.646;23.400;2022-11-11T15:36:44;15.93;;;9.70;;
22650;SDS011;11492;42.646;23.400;2022-11-11T15:39:19;18.33;;;9.60;;
22650;SDS011;11492;42.646;23.400;2022-11-11T15:41:48;20.92;;;9.70;;
22650;SDS011;11492;42.646;23.400;2022-11-11T15:46:46;20.45;;;11.65;;
22650;SDS011;11492;42.646;23.400;2022-11-11T15:52:10;22.75;;;11.68;;
22650;SDS011;11492;42.646;23.400;2022-11-11T15:54:51;19.58;;;11.68;;
22650;SDS011;11492;42.646;23.400;2022-11-11T15:57:25;20.63;;;12.27;;
22650;SDS011;11492;42.646;23.400;2022-11-11T15:59:54;19.95;;;11.90;;
22650;SDS011;11492;42.646;23.400;2022-11-11T16:02:30;20.50;;;10.93;;
22650;SDS011;11492;42.646;23.400;2022-11-11T16:04:59;20.80;;;11.68;;
22650;SDS011;11492;42.646;23.400;2022-11-11T16:07:40;25.73;;;12.73;;
22650;SDS011;11492;42.646;23.400;2022-11-11T16:10:09;22.17;;;13.05;;
22650;SDS011;11492;42.646;23.400;2022-11-11T16:13:01;19.27;;;11.27;;
22650;SDS011;11492;42.646;23.400;2022-11-11T16:15:40;24.02;;;11.65;;
22650;SDS011;11492;42.646;23.400;2022-11-11T16:18:11;18.38;;;10.93;;
22650;SDS011;11492;42.646;23.400;2022-11-11T16:20:44;26.15;;;11.60;;
22650;SDS011;11492;42.646;23.400;2022-11-11T16:23:15;24.33;;;13.10;;
22650;SDS011;11492;42.646;23.400;2022-11-11T16:25:43;24.50;;;13.50;;
22650;SDS011;11492;42.646;23.400;2022-11-11T16:28:11;21.67;;;12.35;;
22650;SDS011;11492;42.646;23.400;2022-11-11T16:30:37;22.67;;;11.95;;
22650;SDS011;11492;42.646;23.400;2022-11-11T16:33:03;20.55;;;11.43;;
22650;SDS011;11492;42.646;23.400;2022-11-11T16:35:35;25.55;;;12.80;;
22650;SDS011;11492;42.646;23.400;2022-11-11T16:38:02;29.08;;;13.90;;
22650;SDS011;11492;42.646;23.400;2022-11-11T16:43:17;25.85;;;15.18;;
22650;SDS011;11492;42.646;23.400;2022-11-11T16:48:33;31.27;;;17.85;;
22650;SDS011;11492;42.646;23.400;2022-11-11T16:51:08;30.45;;;17.38;;
22650;SDS011;11492;42.646;23.400;2022-11-11T16:53:45;31.92;;;17.92;;
22650;SDS011;11492;42.646;23.400;2022-11-11T16:56:18;30.75;;;18.20;;
22650;SDS011;11492;42.646;23.400;2022-11-11T17:02:01;35.08;;;18.80;;
22650;SDS011;11492;42.646;23.400;2022-11-11T17:04:44;31.65;;;19.30;;
22650;SDS011;11492;42.646;23.400;2022-11-11T17:07:21;40.40;;;20.10;;
22650;SDS011;11492;42.646;23.400;2022-11-11T17:10:15;34.33;;;19.83;;
22650;SDS011;11492;42.646;23.400;2022-11-11T17:12:46;36.65;;;19.02;;
22650;SDS011;11492;42.646;23.400;2022-11-11T17:15:15;33.17;;;19.48;;
22650;SDS011;11492;42.646;23.400;2022-11-11T17:17:42;35.65;;;19.52;;
22650;SDS011;11492;42.646;23.400;2022-11-11T17:22:36;34.10;;;19.17;;
22650;SDS011;11492;42.646;23.400;2022-11-11T17:25:09;35.00;;;19.75;;
22650;SDS011;11492;42.646;23.400;2022-11-11T17:27:35;36.50;;;19.73;;
22650;SDS011;11492;42.646;23.400;2022-11-11T17:30:00;37.13;;;20.10;;
22650;SDS011;11492;42.646;23.400;2022-11-11T17:32:26;36.03;;;19.48;;
22650;SDS011;11492;42.646;23.400;2022-11-11T17:34:51;37.53;;;20.52;;
22650;SDS011;11492;42.646;23.400;2022-11-11T17:37:16;32.83;;;19.40;;
22650;SDS011;11492;42.646;23.400;2022-11-11T17:39:42;37.03;;;19.73;;
22650;SDS011;11492;42.646;23.400;2022-11-11T17:42:08;37.03;;;20.42;;